createdAt,value
2017-07-04T00:02:03.628Z,16.3
2017-07-04T00:07:03.139Z,16.1
2017-07-04T00:12:02.956Z,16.1
2017-07-04T00:17:03.624Z,16.2
2017-07-04T00:22:03.594Z,16.1
2017-07-04T00:27:03.262Z,16.2
2017-07-04T00:32:02.915Z,16.1
2017-07-04T00:37:03.562Z,16.1
2017-07-04T00:42:03.263Z,16.0
2017-07-04T00:47:02.959Z,15.9
2017-07-04T00:52:03.497Z,15.8
2017-07-04T00:57:03.260Z,15.7
2017-07-04T01:02:02.944Z,15.7
2017-07-04T01:07:02.839Z,15.4
2017-07-04T01:12:03.512Z,15.5
2017-07-04T01:17:03.151Z,15.5
2017-07-04T01:22:03.330Z,15.5
2017-07-04T01:27:03.002Z,15.5
2017-07-04T01:32:03.871Z,15.7
2017-07-04T01:37:03.297Z,15.7
2017-07-04T01:42:02.958Z,15.8
2017-07-04T01:47:03.522Z,15.8
2017-07-04T01:52:02.755Z,16.1
2017-07-04T01:57:03.305Z,16.0
2017-07-04T02:02:02.941Z,16.1
2017-07-04T02:07:03.261Z,16.1
2017-07-04T02:12:03.109Z,16.1
2017-07-04T02:17:03.013Z,16.1
2017-07-04T02:22:02.881Z,16.1
2017-07-04T02:27:03.603Z,16.0
2017-07-04T02:32:02.777Z,15.9
2017-07-04T02:37:03.116Z,15.8
2017-07-04T02:42:03.328Z,15.8
2017-07-04T02:47:10.762Z,15.7
2017-07-04T02:52:03.025Z,15.7
2017-07-04T02:57:03.469Z,15.6
2017-07-04T03:02:13.208Z,15.6
2017-07-04T03:07:03.472Z,15.4
2017-07-04T03:12:03.085Z,15.3
2017-07-04T03:17:13.649Z,15.2
2017-07-04T03:22:03.351Z,15.1
2017-07-04T03:27:02.981Z,15.1
2017-07-04T03:32:13.683Z,15.1
2017-07-04T03:37:02.976Z,15.0
2017-07-04T03:42:03.374Z,15.0
2017-07-04T03:47:13.385Z,15.1
2017-07-04T03:52:03.219Z,15.1
2017-07-04T03:57:03.484Z,15.2
2017-07-04T04:02:13.481Z,15.2
2017-07-04T04:07:03.383Z,15.2
2017-07-04T04:12:02.914Z,15.2
2017-07-04T04:17:14.064Z,15.1
2017-07-04T04:22:02.893Z,15.2
2017-07-04T04:27:03.331Z,15.3
2017-07-04T04:32:14.177Z,15.3
2017-07-04T04:37:03.416Z,15.7
2017-07-04T04:42:02.726Z,16.3
2017-07-04T04:47:13.432Z,16.4
2017-07-04T04:52:02.644Z,16.4
2017-07-04T04:57:03.030Z,16.8
2017-07-04T05:02:09.724Z,16.9
2017-07-04T05:07:03.470Z,16.9
2017-07-04T05:12:03.051Z,16.9
2017-07-04T05:17:14.089Z,17.1
2017-07-04T05:22:02.917Z,17.2
2017-07-04T05:27:03.310Z,17.1
2017-07-04T05:32:13.816Z,17.3
2017-07-04T05:37:03.530Z,17.4
2017-07-04T05:42:02.888Z,17.8
2017-07-04T05:47:17.429Z,18.3
2017-07-04T05:52:03.199Z,18.5
2017-07-04T05:57:03.476Z,18.5
2017-07-04T06:02:13.266Z,18.8
2017-07-04T06:07:03.258Z,18.9
2017-07-04T06:12:02.888Z,19.1
2017-07-04T06:17:13.742Z,19.2
2017-07-04T06:22:02.768Z,19.2
2017-07-04T06:27:03.222Z,19.3
2017-07-04T06:32:17.973Z,19.6
2017-07-04T06:37:02.751Z,19.8
2017-07-04T06:42:03.216Z,20.4
2017-07-04T06:47:29.077Z,20.9
2017-07-04T06:52:03.396Z,21.4
2017-07-04T06:57:02.869Z,21.4
2017-07-04T07:02:17.906Z,21.9
2017-07-04T07:07:03.094Z,22.6
2017-07-04T07:12:03.119Z,22.6
2017-07-04T07:17:28.814Z,23.0
2017-07-04T07:22:03.258Z,23.4
2017-07-04T07:27:03.579Z,24.3
2017-07-04T07:32:13.506Z,24.3
2017-07-04T07:37:03.492Z,24.8
2017-07-04T07:42:02.879Z,25.8
2017-07-04T07:47:17.971Z,26.3
2017-07-04T07:52:03.458Z,26.6
2017-07-04T07:57:02.874Z,26.5
2017-07-04T08:02:17.796Z,26.8
2017-07-04T08:07:03.316Z,26.9
2017-07-04T08:12:02.776Z,27.0
2017-07-04T08:17:13.665Z,26.9
2017-07-04T08:22:03.163Z,26.5
2017-07-04T08:27:02.922Z,26.1
2017-07-04T08:32:13.553Z,26.7
2017-07-04T08:37:02.752Z,26.7
2017-07-04T08:42:03.136Z,27.3
2017-07-04T08:47:13.906Z,28.0
2017-07-04T08:52:02.760Z,28.0
2017-07-04T08:57:02.851Z,27.9
2017-07-04T09:02:13.609Z,27.8
2017-07-04T09:07:03.541Z,27.2
2017-07-04T09:12:03.085Z,26.8
2017-07-04T09:17:17.261Z,26.6
2017-07-04T09:22:02.776Z,26.9
2017-07-04T09:27:03.245Z,28.6
2017-07-04T09:32:13.883Z,29.5
2017-07-04T09:37:03.606Z,30.5
2017-07-04T09:42:03.084Z,30.0
2017-07-04T09:47:17.967Z,29.9
2017-07-04T09:52:02.677Z,29.6
2017-07-04T09:57:03.168Z,29.3
2017-07-04T10:02:17.746Z,29.7
2017-07-04T10:07:03.402Z,29.7
2017-07-04T10:12:03.124Z,29.6
2017-07-04T10:17:13.917Z,29.8
2017-07-04T10:22:02.768Z,30.1
2017-07-04T10:27:03.195Z,30.1
2017-07-04T10:32:13.770Z,30.1
2017-07-04T10:37:03.247Z,30.1
2017-07-04T10:42:03.561Z,29.6
2017-07-04T10:47:13.483Z,29.2
2017-07-04T10:52:02.826Z,29.5
2017-07-04T10:57:02.782Z,30.2
2017-07-04T11:02:16.887Z,30.2
2017-07-04T11:07:03.464Z,30.1
2017-07-04T11:12:03.041Z,30.1
2017-07-04T11:17:13.826Z,29.6
2017-07-04T11:22:02.728Z,29.9
2017-07-04T11:27:03.166Z,30.3
2017-07-04T11:32:23.216Z,30.4
2017-07-04T11:37:03.533Z,30.4
2017-07-04T11:42:02.735Z,30.2
2017-07-04T11:47:13.737Z,30.7
2017-07-04T11:52:03.278Z,30.7
2017-07-04T11:57:02.633Z,30.3
2017-07-04T12:02:22.633Z,30.1
2017-07-04T12:07:03.591Z,30.1
2017-07-04T12:12:03.249Z,30.1
2017-07-04T12:17:17.497Z,30.5
2017-07-04T12:22:03.001Z,30.6
2017-07-04T12:27:03.480Z,31.1
2017-07-04T12:32:13.170Z,31.9
2017-07-04T12:37:03.621Z,31.9
2017-07-04T12:42:02.769Z,32.9
2017-07-04T12:47:13.766Z,33.0
2017-07-04T12:52:02.674Z,33.1
2017-07-04T12:57:03.461Z,33.1
2017-07-04T13:02:13.442Z,33.7
2017-07-04T13:07:03.134Z,33.5
2017-07-04T13:12:03.663Z,33.2
2017-07-04T13:17:17.419Z,33.7
2017-07-04T13:22:03.385Z,34.8
2017-07-04T13:27:02.793Z,34.8
2017-07-04T13:32:13.536Z,34.1
2017-07-04T13:37:03.540Z,34.0
2017-07-04T13:42:03.035Z,35.1
2017-07-04T13:47:13.776Z,36.0
2017-07-04T13:52:03.437Z,36.0
2017-07-04T13:57:02.865Z,35.8
2017-07-04T14:02:13.790Z,35.6
2017-07-04T14:07:02.798Z,35.0
2017-07-04T14:12:03.344Z,34.4
2017-07-04T14:17:13.466Z,34.4
2017-07-04T14:22:03.492Z,33.7
2017-07-04T14:27:02.865Z,33.7
2017-07-04T14:32:13.509Z,34.3
2017-07-04T14:37:03.491Z,34.2
2017-07-04T14:42:02.854Z,33.5
2017-07-04T14:47:13.642Z,33.0
2017-07-04T14:52:03.397Z,33.1
2017-07-04T14:57:02.795Z,33.7
2017-07-04T15:02:13.895Z,41.3
2017-07-04T15:07:03.177Z,41.2
2017-07-04T15:12:03.588Z,44.3
2017-07-04T15:17:13.563Z,44.8
2017-07-04T15:22:03.485Z,48.5
2017-07-04T15:27:02.786Z,44.2
2017-07-04T15:32:13.620Z,44.0
2017-07-04T15:37:02.913Z,44.0
2017-07-04T15:42:03.262Z,42.8
2017-07-04T15:47:14.131Z,39.2
2017-07-04T15:52:02.792Z,36.6
2017-07-04T15:57:03.204Z,35.5
2017-07-04T16:02:13.916Z,34.8
2017-07-04T16:07:03.281Z,34.5
2017-07-04T16:12:02.886Z,34.4
2017-07-04T16:17:13.765Z,34.1
2017-07-04T16:22:03.156Z,33.9
2017-07-04T16:27:03.456Z,32.6
2017-07-04T16:32:13.369Z,32.6
2017-07-04T16:37:02.750Z,32.3
2017-07-04T16:42:03.058Z,32.5
2017-07-04T16:47:13.786Z,32.1
2017-07-04T16:52:03.392Z,32.4
2017-07-04T16:57:02.731Z,44.7
2017-07-04T17:02:19.965Z,48.9
2017-07-04T17:07:03.241Z,51.1
2017-07-04T17:12:02.865Z,51.1
2017-07-04T17:17:16.056Z,52.1
2017-07-04T17:22:02.753Z,49.7
2017-07-04T17:27:03.079Z,49.6
2017-07-04T17:32:16.376Z,45.7
2017-07-04T17:37:03.510Z,45.2
2017-07-04T17:42:02.774Z,48.8
2017-07-04T17:47:14.306Z,49.4
2017-07-04T17:52:03.444Z,49.5
2017-07-04T17:57:02.722Z,49.5
2017-07-04T18:02:12.832Z,48.5
2017-07-04T18:07:02.863Z,48.3
2017-07-04T18:12:03.256Z,46.5
2017-07-04T18:17:20.596Z,46.5
2017-07-04T18:22:02.936Z,45.5
2017-07-04T18:27:03.289Z,39.9
2017-07-04T18:32:04.039Z,34.1
2017-07-04T18:37:02.865Z,32.4
2017-07-04T18:42:03.216Z,32.4
2017-07-04T18:47:22.817Z,30.2
2017-07-04T18:52:03.532Z,29.5
2017-07-04T18:57:03.004Z,29.4
2017-07-04T19:02:13.465Z,28.3
2017-07-04T19:07:03.053Z,27.8
2017-07-04T19:12:03.438Z,27.8
2017-07-04T19:17:09.832Z,26.9
2017-07-04T19:22:03.162Z,26.9
2017-07-04T19:27:03.405Z,26.6
2017-07-04T19:32:23.344Z,25.8
2017-07-04T19:37:03.490Z,25.7
2017-07-04T19:42:03.213Z,25.0
2017-07-04T19:47:13.901Z,24.8
2017-07-04T19:52:02.872Z,24.7
2017-07-04T19:57:03.088Z,24.2
2017-07-04T20:02:24.101Z,24.2
2017-07-04T20:07:03.209Z,24.0
2017-07-04T20:12:03.595Z,23.7
2017-07-04T20:17:10.358Z,23.4
2017-07-04T20:22:03.362Z,23.3
2017-07-04T20:27:02.762Z,23.2
2017-07-04T20:32:10.266Z,22.6
2017-07-04T20:37:03.628Z,22.6
2017-07-04T20:42:02.998Z,22.2
2017-07-04T20:47:03.575Z,22.0
2017-07-04T20:52:02.782Z,21.9
2017-07-04T20:57:03.044Z,21.8
2017-07-04T21:02:02.986Z,21.7
2017-07-04T21:07:03.372Z,21.3
2017-07-04T21:12:02.908Z,21.3
2017-07-04T21:17:03.206Z,21.1
2017-07-04T21:22:03.389Z,21.1
2017-07-04T21:27:02.853Z,21.0
2017-07-04T21:32:03.354Z,20.8
2017-07-04T21:37:03.295Z,20.7
2017-07-04T21:42:03.547Z,20.6
2017-07-04T21:47:03.163Z,20.5
2017-07-04T21:52:03.299Z,20.5
2017-07-04T21:57:03.571Z,20.4
2017-07-04T22:02:03.311Z,20.3
2017-07-04T22:07:03.418Z,19.8
2017-07-04T22:12:03.247Z,19.8
2017-07-04T22:22:03.748Z,19.5
2017-07-04T22:27:03.511Z,19.4
2017-07-04T22:32:03.701Z,19.4
2017-07-04T22:37:03.281Z,19.3
2017-07-04T22:42:03.318Z,19.1
2017-07-04T22:47:03.460Z,19.0
2017-07-04T22:52:03.125Z,19.0
2017-07-04T22:57:03.135Z,18.9
2017-07-04T23:02:03.338Z,18.9
2017-07-04T23:07:03.236Z,18.8
2017-07-04T23:12:03.208Z,18.8
2017-07-04T23:17:03.605Z,18.7
2017-07-04T23:22:03.535Z,18.7
2017-07-04T23:27:02.766Z,18.6
2017-07-04T23:32:02.886Z,18.5
2017-07-04T23:37:03.126Z,18.4
2017-07-04T23:42:03.148Z,18.3
2017-07-04T23:47:03.142Z,18.2
2017-07-04T23:52:03.280Z,18.2
2017-07-04T23:57:03.373Z,18.1
